sensor_id;sensor_type;location;lat;lon;timestamp;P1;durP1;ratioP1;P2;durP2;ratioP2
23088;SDS011;11713;48.506;8.966;2022-11-15T00:01:08;9.50;;;6.90;;
23088;SDS011;11713;48.506;8.966;2022-11-15T00:04:00;12.07;;;8.23;;
23088;SDS011;11713;48.506;8.966;2022-11-15T00:06:45;15.90;;;10.00;;
23088;SDS011;11713;48.506;8.966;2022-11-15T00:09:29;11.77;;;8.33;;
23088;SDS011;11713;48.506;8.966;2022-11-15T00:12:14;10.13;;;8.50;;
23088;SDS011;11713;48.506;8.966;2022-11-15T00:14:59;11.33;;;8.10;;
23088;SDS011;11713;48.506;8.966;2022-11-15T00:17:43;8.83;;;7.50;;
23088;SDS011;11713;48.506;8.966;2022-11-15T00:20:35;12.30;;;7.70;;
23088;SDS011;11713;48.506;8.966;2022-11-15T00:23:19;10.40;;;7.30;;
23088;SDS011;11713;48.506;8.966;2022-11-15T00:26:04;9.10;;;6.57;;
23088;SDS011;11713;48.506;8.966;2022-11-15T00:28:51;11.37;;;7.13;;
23088;SDS011;11713;48.506;8.966;2022-11-15T00:31:36;10.77;;;6.83;;
23088;SDS011;11713;48.506;8.966;2022-11-15T00:34:21;9.33;;;6.27;;
23088;SDS011;11713;48.506;8.966;2022-11-15T00:37:06;10.90;;;7.07;;
23088;SDS011;11713;48.506;8.966;2022-11-15T00:39:50;10.50;;;6.37;;
23088;SDS011;11713;48.506;8.966;2022-11-15T00:42:35;6.93;;;5.73;;
23088;SDS011;11713;48.506;8.966;2022-11-15T00:45:19;9.13;;;6.57;;
23088;SDS011;11713;48.506;8.966;2022-11-15T00:48:04;10.07;;;6.17;;
23088;SDS011;11713;48.506;8.966;2022-11-15T00:50:51;10.73;;;6.47;;
23088;SDS011;11713;48.506;8.966;2022-11-15T00:53:36;9.23;;;6.87;;
23088;SDS011;11713;48.506;8.966;2022-11-15T00:56:20;9.03;;;6.67;;
23088;SDS011;11713;48.506;8.966;2022-11-15T00:59:05;7.63;;;6.00;;
23088;SDS011;11713;48.506;8.966;2022-11-15T01:01:49;10.63;;;6.60;;
23088;SDS011;11713;48.506;8.966;2022-11-15T01:04:34;11.23;;;7.73;;
23088;SDS011;11713;48.506;8.966;2022-11-15T01:07:18;10.90;;;7.50;;
23088;SDS011;11713;48.506;8.966;2022-11-15T01:10:04;11.17;;;7.37;;
23088;SDS011;11713;48.506;8.966;2022-11-15T01:12:49;11.30;;;7.93;;
23088;SDS011;11713;48.506;8.966;2022-11-15T01:15:33;11.60;;;8.40;;
23088;SDS011;11713;48.506;8.966;2022-11-15T01:18:21;11.97;;;8.37;;
23088;SDS011;11713;48.506;8.966;2022-11-15T01:21:10;10.60;;;7.90;;
23088;SDS011;11713;48.506;8.966;2022-11-15T01:23:59;12.43;;;8.13;;
23088;SDS011;11713;48.506;8.966;2022-11-15T01:26:44;12.97;;;7.63;;
23088;SDS011;11713;48.506;8.966;2022-11-15T01:29:29;12.23;;;7.97;;
23088;SDS011;11713;48.506;8.966;2022-11-15T01:32:13;9.30;;;7.00;;
23088;SDS011;11713;48.506;8.966;2022-11-15T01:34:58;10.50;;;8.00;;
23088;SDS011;11713;48.506;8.966;2022-11-15T01:37:42;9.20;;;7.17;;
23088;SDS011;11713;48.506;8.966;2022-11-15T01:40:27;10.63;;;6.83;;
23088;SDS011;11713;48.506;8.966;2022-11-15T01:43:21;8.43;;;7.07;;
23088;SDS011;11713;48.506;8.966;2022-11-15T01:49:19;10.00;;;7.53;;
23088;SDS011;11713;48.506;8.966;2022-11-15T01:52:10;9.50;;;7.40;;
23088;SDS011;11713;48.506;8.966;2022-11-15T01:55:01;10.27;;;7.77;;
23088;SDS011;11713;48.506;8.966;2022-11-15T01:57:53;12.03;;;7.27;;
23088;SDS011;11713;48.506;8.966;2022-11-15T02:00:40;9.57;;;6.90;;
23088;SDS011;11713;48.506;8.966;2022-11-15T02:03:26;9.77;;;7.50;;
23088;SDS011;11713;48.506;8.966;2022-11-15T02:06:21;8.87;;;7.27;;
23088;SDS011;11713;48.506;8.966;2022-11-15T02:09:06;7.83;;;6.40;;
23088;SDS011;11713;48.506;8.966;2022-11-15T02:11:51;8.53;;;6.27;;
23088;SDS011;11713;48.506;8.966;2022-11-15T02:14:39;7.30;;;6.07;;
23088;SDS011;11713;48.506;8.966;2022-11-15T02:32:54;8.13;;;6.67;;
23088;SDS011;11713;48.506;8.966;2022-11-15T02:36:02;7.73;;;6.40;;
23088;SDS011;11713;48.506;8.966;2022-11-15T02:39:05;8.13;;;6.57;;
23088;SDS011;11713;48.506;8.966;2022-11-15T02:42:02;7.27;;;6.07;;
23088;SDS011;11713;48.506;8.966;2022-11-15T02:45:12;9.37;;;7.07;;
23088;SDS011;11713;48.506;8.966;2022-11-15T02:48:01;10.23;;;7.00;;
23088;SDS011;11713;48.506;8.966;2022-11-15T02:50:49;10.70;;;6.70;;
23088;SDS011;11713;48.506;8.966;2022-11-15T02:53:35;8.27;;;6.57;;
23088;SDS011;11713;48.506;8.966;2022-11-15T02:56:22;9.07;;;7.10;;
23088;SDS011;11713;48.506;8.966;2022-11-15T02:59:11;16.07;;;9.03;;
23088;SDS011;11713;48.506;8.966;2022-11-15T03:08:01;13.00;;;8.03;;
23088;SDS011;11713;48.506;8.966;2022-11-15T03:14:02;9.13;;;6.77;;
23088;SDS011;11713;48.506;8.966;2022-11-15T03:17:18;9.57;;;5.83;;
23088;SDS011;11713;48.506;8.966;2022-11-15T03:20:13;6.90;;;6.00;;
23088;SDS011;11713;48.506;8.966;2022-11-15T03:23:04;9.57;;;6.87;;
23088;SDS011;11713;48.506;8.966;2022-11-15T03:25:51;8.13;;;5.90;;
23088;SDS011;11713;48.506;8.966;2022-11-15T03:28:40;8.30;;;6.10;;
23088;SDS011;11713;48.506;8.966;2022-11-15T03:31:31;9.67;;;6.40;;
23088;SDS011;11713;48.506;8.966;2022-11-15T03:34:32;10.73;;;7.47;;
23088;SDS011;11713;48.506;8.966;2022-11-15T03:37:22;8.73;;;6.53;;
23088;SDS011;11713;48.506;8.966;2022-11-15T03:40:13;8.70;;;6.80;;
23088;SDS011;11713;48.506;8.966;2022-11-15T03:46:27;9.40;;;6.73;;
23088;SDS011;11713;48.506;8.966;2022-11-15T03:49:33;9.17;;;6.73;;
23088;SDS011;11713;48.506;8.966;2022-11-15T03:52:19;11.23;;;7.13;;
23088;SDS011;11713;48.506;8.966;2022-11-15T03:55:05;12.40;;;7.27;;
23088;SDS011;11713;48.506;8.966;2022-11-15T03:57:53;13.73;;;8.13;;
23088;SDS011;11713;48.506;8.966;2022-11-15T04:00:41;14.57;;;8.87;;
23088;SDS011;11713;48.506;8.966;2022-11-15T04:03:26;15.40;;;9.00;;
23088;SDS011;11713;48.506;8.966;2022-11-15T04:06:10;13.10;;;8.13;;
23088;SDS011;11713;48.506;8.966;2022-11-15T04:08:55;11.80;;;7.97;;
23088;SDS011;11713;48.506;8.966;2022-11-15T04:11:39;12.67;;;8.27;;
23088;SDS011;11713;48.506;8.966;2022-11-15T04:14:27;10.73;;;8.33;;
23088;SDS011;11713;48.506;8.966;2022-11-15T04:17:11;12.37;;;8.23;;
23088;SDS011;11713;48.506;8.966;2022-11-15T04:19:56;11.53;;;8.00;;
23088;SDS011;11713;48.506;8.966;2022-11-15T04:23:00;10.83;;;8.27;;
23088;SDS011;11713;48.506;8.966;2022-11-15T04:26:05;11.90;;;7.83;;
23088;SDS011;11713;48.506;8.966;2022-11-15T04:28:55;12.30;;;8.27;;
23088;SDS011;11713;48.506;8.966;2022-11-15T04:31:58;10.60;;;7.70;;
23088;SDS011;11713;48.506;8.966;2022-11-15T04:34:42;14.73;;;8.60;;
23088;SDS011;11713;48.506;8.966;2022-11-15T04:37:27;10.97;;;8.67;;
23088;SDS011;11713;48.506;8.966;2022-11-15T04:40:13;11.80;;;8.63;;
23088;SDS011;11713;48.506;8.966;2022-11-15T04:43:01;10.50;;;7.37;;
23088;SDS011;11713;48.506;8.966;2022-11-15T04:45:46;13.40;;;8.00;;
23088;SDS011;11713;48.506;8.966;2022-11-15T04:48:31;9.57;;;7.30;;
23088;SDS011;11713;48.506;8.966;2022-11-15T04:51:16;11.73;;;7.87;;
23088;SDS011;11713;48.506;8.966;2022-11-15T04:54:01;10.80;;;8.13;;
23088;SDS011;11713;48.506;8.966;2022-11-15T04:56:45;11.03;;;8.10;;
23088;SDS011;11713;48.506;8.966;2022-11-15T04:59:32;12.57;;;8.30;;
23088;SDS011;11713;48.506;8.966;2022-11-15T05:02:17;11.40;;;9.00;;
23088;SDS011;11713;48.506;8.966;2022-11-15T05:05:01;9.50;;;7.77;;
23088;SDS011;11713;48.506;8.966;2022-11-15T05:07:46;11.33;;;8.20;;
23088;SDS011;11713;48.506;8.966;2022-11-15T05:10:30;11.10;;;8.30;;
23088;SDS011;11713;48.506;8.966;2022-11-15T05:13:15;10.40;;;7.77;;
23088;SDS011;11713;48.506;8.966;2022-11-15T05:16:00;9.27;;;7.70;;
23088;SDS011;11713;48.506;8.966;2022-11-15T05:18:45;11.27;;;8.00;;
23088;SDS011;11713;48.506;8.966;2022-11-15T05:21:32;9.90;;;7.97;;
23088;SDS011;11713;48.506;8.966;2022-11-15T05:24:17;8.57;;;6.90;;
23088;SDS011;11713;48.506;8.966;2022-11-15T05:27:02;9.13;;;7.03;;
23088;SDS011;11713;48.506;8.966;2022-11-15T05:29:46;9.17;;;7.30;;
23088;SDS011;11713;48.506;8.966;2022-11-15T05:32:31;9.70;;;7.27;;
23088;SDS011;11713;48.506;8.966;2022-11-15T05:38:38;14.87;;;9.30;;
23088;SDS011;11713;48.506;8.966;2022-11-15T05:41:25;15.90;;;8.93;;
23088;SDS011;11713;48.506;8.966;2022-11-15T05:44:15;18.20;;;9.97;;
23088;SDS011;11713;48.506;8.966;2022-11-15T05:47:04;13.77;;;9.20;;
23088;SDS011;11713;48.506;8.966;2022-11-15T05:49:54;7.87;;;6.50;;
23088;SDS011;11713;48.506;8.966;2022-11-15T05:52:39;8.57;;;6.70;;
23088;SDS011;11713;48.506;8.966;2022-11-15T05:55:24;8.70;;;7.07;;
23088;SDS011;11713;48.506;8.966;2022-11-15T05:58:08;7.67;;;6.50;;
23088;SDS011;11713;48.506;8.966;2022-11-15T06:00:53;8.77;;;6.67;;
23088;SDS011;11713;48.506;8.966;2022-11-15T06:03:38;12.50;;;8.33;;
23088;SDS011;11713;48.506;8.966;2022-11-15T06:06:22;14.77;;;9.50;;
23088;SDS011;11713;48.506;8.966;2022-11-15T06:09:07;13.50;;;9.20;;
23088;SDS011;11713;48.506;8.966;2022-11-15T06:11:52;13.63;;;9.60;;
23088;SDS011;11713;48.506;8.966;2022-11-15T06:14:36;13.40;;;9.17;;
23088;SDS011;11713;48.506;8.966;2022-11-15T06:17:21;11.73;;;8.87;;
23088;SDS011;11713;48.506;8.966;2022-11-15T06:20:06;12.87;;;8.77;;
23088;SDS011;11713;48.506;8.966;2022-11-15T06:22:50;10.97;;;7.77;;
23088;SDS011;11713;48.506;8.966;2022-11-15T06:25:35;14.27;;;8.67;;
23088;SDS011;11713;48.506;8.966;2022-11-15T06:28:21;13.67;;;8.43;;
23088;SDS011;11713;48.506;8.966;2022-11-15T06:31:07;11.57;;;8.60;;
23088;SDS011;11713;48.506;8.966;2022-11-15T06:33:54;14.03;;;8.67;;
23088;SDS011;11713;48.506;8.966;2022-11-15T06:36:39;12.10;;;8.27;;
23088;SDS011;11713;48.506;8.966;2022-11-15T06:39:23;12.10;;;8.37;;
23088;SDS011;11713;48.506;8.966;2022-11-15T06:42:08;12.33;;;8.07;;
23088;SDS011;11713;48.506;8.966;2022-11-15T06:44:53;9.63;;;7.97;;
23088;SDS011;11713;48.506;8.966;2022-11-15T06:47:46;9.93;;;7.00;;
23088;SDS011;11713;48.506;8.966;2022-11-15T06:50:31;11.13;;;7.93;;
23088;SDS011;11713;48.506;8.966;2022-11-15T06:53:16;11.67;;;7.13;;
23088;SDS011;11713;48.506;8.966;2022-11-15T06:56:01;9.87;;;8.63;;
23088;SDS011;11713;48.506;8.966;2022-11-15T06:58:47;17.93;;;14.00;;
23088;SDS011;11713;48.506;8.966;2022-11-15T07:01:31;11.33;;;9.23;;
23088;SDS011;11713;48.506;8.966;2022-11-15T07:04:16;11.33;;;8.03;;
23088;SDS011;11713;48.506;8.966;2022-11-15T07:07:00;9.83;;;7.87;;
23088;SDS011;11713;48.506;8.966;2022-11-15T07:09:45;9.43;;;6.90;;
23088;SDS011;11713;48.506;8.966;2022-11-15T07:12:29;9.13;;;6.90;;
23088;SDS011;11713;48.506;8.966;2022-11-15T07:15:15;9.80;;;7.37;;
23088;SDS011;11713;48.506;8.966;2022-11-15T07:18:00;10.47;;;7.90;;
23088;SDS011;11713;48.506;8.966;2022-11-15T07:20:45;8.77;;;6.97;;
23088;SDS011;11713;48.506;8.966;2022-11-15T07:23:30;10.40;;;7.97;;
23088;SDS011;11713;48.506;8.966;2022-11-15T07:26:15;10.93;;;8.50;;
23088;SDS011;11713;48.506;8.966;2022-11-15T07:28:59;10.80;;;8.43;;
23088;SDS011;11713;48.506;8.966;2022-11-15T07:31:44;11.67;;;8.27;;
23088;SDS011;11713;48.506;8.966;2022-11-15T07:34:28;12.67;;;8.67;;
23088;SDS011;11713;48.506;8.966;2022-11-15T07:37:13;11.07;;;8.57;;
23088;SDS011;11713;48.506;8.966;2022-11-15T07:39:57;13.20;;;8.33;;
23088;SDS011;11713;48.506;8.966;2022-11-15T07:42:42;10.73;;;8.07;;
23088;SDS011;11713;48.506;8.966;2022-11-15T07:45:40;10.60;;;7.97;;
23088;SDS011;11713;48.506;8.966;2022-11-15T07:48:29;9.73;;;7.13;;
23088;SDS011;11713;48.506;8.966;2022-11-15T07:51:17;9.53;;;7.53;;
23088;SDS011;11713;48.506;8.966;2022-11-15T07:54:01;11.83;;;8.87;;
23088;SDS011;11713;48.506;8.966;2022-11-15T07:56:46;17.23;;;12.17;;
23088;SDS011;11713;48.506;8.966;2022-11-15T07:59:31;14.83;;;9.53;;
23088;SDS011;11713;48.506;8.966;2022-11-15T08:02:15;13.33;;;8.43;;
23088;SDS011;11713;48.506;8.966;2022-11-15T08:05:01;11.50;;;7.93;;
23088;SDS011;11713;48.506;8.966;2022-11-15T08:07:45;14.30;;;7.67;;
23088;SDS011;11713;48.506;8.966;2022-11-15T08:10:30;12.00;;;8.17;;
23088;SDS011;11713;48.506;8.966;2022-11-15T08:13:16;12.43;;;8.73;;
23088;SDS011;11713;48.506;8.966;2022-11-15T08:16:01;11.93;;;8.97;;
23088;SDS011;11713;48.506;8.966;2022-11-15T08:18:49;12.60;;;8.60;;
23088;SDS011;11713;48.506;8.966;2022-11-15T08:21:33;12.53;;;8.87;;
23088;SDS011;11713;48.506;8.966;2022-11-15T08:24:19;10.87;;;8.73;;
23088;SDS011;11713;48.506;8.966;2022-11-15T08:27:05;10.33;;;7.87;;
23088;SDS011;11713;48.506;8.966;2022-11-15T08:29:58;12.37;;;8.90;;
23088;SDS011;11713;48.506;8.966;2022-11-15T08:32:42;10.07;;;8.00;;
23088;SDS011;11713;48.506;8.966;2022-11-15T08:35:27;11.50;;;8.00;;
23088;SDS011;11713;48.506;8.966;2022-11-15T08:38:12;9.60;;;7.30;;
23088;SDS011;11713;48.506;8.966;2022-11-15T08:41:01;9.77;;;7.07;;
23088;SDS011;11713;48.506;8.966;2022-11-15T08:43:48;10.47;;;7.77;;
23088;SDS011;11713;48.506;8.966;2022-11-15T08:46:32;23.83;;;19.90;;
23088;SDS011;11713;48.506;8.966;2022-11-15T08:49:17;14.17;;;10.93;;
23088;SDS011;11713;48.506;8.966;2022-11-15T08:52:02;11.47;;;9.20;;
23088;SDS011;11713;48.506;8.966;2022-11-15T08:54:47;13.20;;;9.93;;
23088;SDS011;11713;48.506;8.966;2022-11-15T08:57:31;12.90;;;9.73;;
23088;SDS011;11713;48.506;8.966;2022-11-15T09:00:16;10.07;;;7.93;;
23088;SDS011;11713;48.506;8.966;2022-11-15T09:03:03;8.70;;;7.00;;
23088;SDS011;11713;48.506;8.966;2022-11-15T09:05:53;8.47;;;6.87;;
23088;SDS011;11713;48.506;8.966;2022-11-15T09:08:41;10.10;;;6.80;;
23088;SDS011;11713;48.506;8.966;2022-11-15T09:11:26;8.33;;;6.70;;
23088;SDS011;11713;48.506;8.966;2022-11-15T09:14:11;9.37;;;6.97;;
23088;SDS011;11713;48.506;8.966;2022-11-15T09:16:56;8.50;;;6.73;;
23088;SDS011;11713;48.506;8.966;2022-11-15T09:19:41;7.73;;;6.80;;
23088;SDS011;11713;48.506;8.966;2022-11-15T09:22:25;10.83;;;7.73;;
23088;SDS011;11713;48.506;8.966;2022-11-15T09:25:10;9.10;;;8.00;;
23088;SDS011;11713;48.506;8.966;2022-11-15T09:27:55;10.77;;;8.13;;
23088;SDS011;11713;48.506;8.966;2022-11-15T09:30:43;11.27;;;8.50;;
23088;SDS011;11713;48.506;8.966;2022-11-15T09:33:28;10.60;;;8.47;;
23088;SDS011;11713;48.506;8.966;2022-11-15T09:36:12;10.13;;;7.97;;
23088;SDS011;11713;48.506;8.966;2022-11-15T09:38:58;10.00;;;8.50;;
23088;SDS011;11713;48.506;8.966;2022-11-15T09:41:50;11.87;;;8.73;;
23088;SDS011;11713;48.506;8.966;2022-11-15T09:53:13;10.70;;;8.20;;
23088;SDS011;11713;48.506;8.966;2022-11-15T09:56:03;9.30;;;7.73;;
23088;SDS011;11713;48.506;8.966;2022-11-15T10:04:35;9.60;;;8.27;;
23088;SDS011;11713;48.506;8.966;2022-11-15T10:07:12;9.13;;;7.23;;
23088;SDS011;11713;48.506;8.966;2022-11-15T10:12:35;9.87;;;7.63;;
23088;SDS011;11713;48.506;8.966;2022-11-15T10:15:02;8.60;;;7.30;;
23088;SDS011;11713;48.506;8.966;2022-11-15T10:20:28;8.43;;;7.33;;
23088;SDS011;11713;48.506;8.966;2022-11-15T10:22:56;8.70;;;7.33;;
23088;SDS011;11713;48.506;8.966;2022-11-15T10:25:29;12.70;;;7.37;;
23088;SDS011;11713;48.506;8.966;2022-11-15T10:27:58;9.33;;;7.20;;
23088;SDS011;11713;48.506;8.966;2022-11-15T10:30:32;9.63;;;7.70;;
23088;SDS011;11713;48.506;8.966;2022-11-15T10:43:45;9.63;;;8.60;;
23088;SDS011;11713;48.506;8.966;2022-11-15T10:46:26;13.73;;;9.60;;
23088;SDS011;11713;48.506;8.966;2022-11-15T10:48:52;13.53;;;9.70;;
23088;SDS011;11713;48.506;8.966;2022-11-15T10:51:25;17.70;;;12.13;;
23088;SDS011;11713;48.506;8.966;2022-11-15T10:53:54;15.40;;;10.47;;
23088;SDS011;11713;48.506;8.966;2022-11-15T10:56:24;14.67;;;10.37;;
23088;SDS011;11713;48.506;8.966;2022-11-15T10:58:55;13.97;;;11.80;;
23088;SDS011;11713;48.506;8.966;2022-11-15T11:01:23;16.47;;;11.07;;
23088;SDS011;11713;48.506;8.966;2022-11-15T11:04:00;12.57;;;10.60;;
23088;SDS011;11713;48.506;8.966;2022-11-15T11:06:30;12.57;;;8.87;;
23088;SDS011;11713;48.506;8.966;2022-11-15T11:11:58;12.20;;;8.90;;
23088;SDS011;11713;48.506;8.966;2022-11-15T11:14:34;9.37;;;8.00;;
23088;SDS011;11713;48.506;8.966;2022-11-15T11:33:29;15.07;;;9.77;;
23088;SDS011;11713;48.506;8.966;2022-11-15T11:35:42;13.73;;;8.67;;
23088;SDS011;11713;48.506;8.966;2022-11-15T11:42:07;9.70;;;8.70;;
23088;SDS011;11713;48.506;8.966;2022-11-15T11:52:28;8.07;;;7.27;;
23088;SDS011;11713;48.506;8.966;2022-11-15T11:55:33;7.53;;;6.73;;
23088;SDS011;11713;48.506;8.966;2022-11-15T12:00:57;9.23;;;7.07;;
23088;SDS011;11713;48.506;8.966;2022-11-15T12:06:14;8.83;;;7.47;;
23088;SDS011;11713;48.506;8.966;2022-11-15T12:11:43;14.70;;;10.53;;
23088;SDS011;11713;48.506;8.966;2022-11-15T12:16:59;14.83;;;10.50;;
23088;SDS011;11713;48.506;8.966;2022-11-15T12:19:25;15.33;;;11.20;;
23088;SDS011;11713;48.506;8.966;2022-11-15T12:22:39;12.93;;;10.20;;
23088;SDS011;11713;48.506;8.966;2022-11-15T12:27:19;12.07;;;8.53;;
23088;SDS011;11713;48.506;8.966;2022-11-15T12:30:11;11.57;;;8.00;;
23088;SDS011;11713;48.506;8.966;2022-11-15T12:38:08;10.53;;;7.20;;
23088;SDS011;11713;48.506;8.966;2022-11-15T12:40:37;11.77;;;8.10;;
23088;SDS011;11713;48.506;8.966;2022-11-15T12:45:43;7.33;;;6.40;;
23088;SDS011;11713;48.506;8.966;2022-11-15T12:50:55;8.57;;;6.50;;
23088;SDS011;11713;48.506;8.966;2022-11-15T12:53:31;8.70;;;6.93;;
23088;SDS011;11713;48.506;8.966;2022-11-15T13:06:43;10.13;;;7.40;;
23088;SDS011;11713;48.506;8.966;2022-11-15T13:14:56;13.87;;;9.10;;
23088;SDS011;11713;48.506;8.966;2022-11-15T13:17:31;15.87;;;8.67;;
23088;SDS011;11713;48.506;8.966;2022-11-15T13:20:14;11.00;;;8.70;;
23088;SDS011;11713;48.506;8.966;2022-11-15T13:25:46;10.87;;;6.63;;
23088;SDS011;11713;48.506;8.966;2022-11-15T13:30:40;9.97;;;7.37;;
23088;SDS011;11713;48.506;8.966;2022-11-15T13:33:16;13.17;;;8.10;;
23088;SDS011;11713;48.506;8.966;2022-11-15T13:35:45;12.63;;;8.67;;
23088;SDS011;11713;48.506;8.966;2022-11-15T13:40:55;13.53;;;8.33;;
23088;SDS011;11713;48.506;8.966;2022-11-15T13:48:39;8.83;;;6.93;;
23088;SDS011;11713;48.506;8.966;2022-11-15T13:51:12;6.93;;;5.80;;
23088;SDS011;11713;48.506;8.966;2022-11-15T13:53:57;6.70;;;5.03;;
23088;SDS011;11713;48.506;8.966;2022-11-15T13:56:44;6.97;;;4.87;;
23088;SDS011;11713;48.506;8.966;2022-11-15T14:02:02;8.30;;;4.93;;
23088;SDS011;11713;48.506;8.966;2022-11-15T14:04:38;10.80;;;7.63;;
23088;SDS011;11713;48.506;8.966;2022-11-15T14:07:15;10.80;;;8.53;;
23088;SDS011;11713;48.506;8.966;2022-11-15T14:09:46;12.10;;;8.63;;
23088;SDS011;11713;48.506;8.966;2022-11-15T14:12:32;9.33;;;7.60;;
23088;SDS011;11713;48.506;8.966;2022-11-15T14:15:00;12.70;;;8.53;;
23088;SDS011;11713;48.506;8.966;2022-11-15T14:17:43;9.23;;;7.63;;
23088;SDS011;11713;48.506;8.966;2022-11-15T14:20:20;10.03;;;7.33;;
23088;SDS011;11713;48.506;8.966;2022-11-15T14:22:52;9.80;;;7.87;;
23088;SDS011;11713;48.506;8.966;2022-11-15T14:25:24;10.03;;;7.10;;
23088;SDS011;11713;48.506;8.966;2022-11-15T14:30:56;12.43;;;8.17;;
23088;SDS011;11713;48.506;8.966;2022-11-15T14:33:24;11.60;;;8.23;;
23088;SDS011;11713;48.506;8.966;2022-11-15T14:35:56;10.07;;;6.80;;
23088;SDS011;11713;48.506;8.966;2022-11-15T14:38:24;11.53;;;7.47;;
23088;SDS011;11713;48.506;8.966;2022-11-15T14:40:54;11.37;;;7.27;;
23088;SDS011;11713;48.506;8.966;2022-11-15T14:43:22;14.57;;;9.07;;
23088;SDS011;11713;48.506;8.966;2022-11-15T14:45:48;14.17;;;7.67;;
23088;SDS011;11713;48.506;8.966;2022-11-15T14:48:16;14.27;;;8.00;;
23088;SDS011;11713;48.506;8.966;2022-11-15T14:50:42;10.27;;;7.87;;
23088;SDS011;11713;48.506;8.966;2022-11-15T14:53:13;11.37;;;7.83;;
23088;SDS011;11713;48.506;8.966;2022-11-15T14:55:41;13.33;;;8.50;;
23088;SDS011;11713;48.506;8.966;2022-11-15T14:58:07;12.83;;;8.83;;
23088;SDS011;11713;48.506;8.966;2022-11-15T15:00:34;13.47;;;8.77;;
23088;SDS011;11713;48.506;8.966;2022-11-15T15:03:01;16.57;;;11.33;;
23088;SDS011;11713;48.506;8.966;2022-11-15T15:05:32;17.23;;;11.40;;
23088;SDS011;11713;48.506;8.966;2022-11-15T15:08:03;16.87;;;10.83;;
23088;SDS011;11713;48.506;8.966;2022-11-15T15:10:32;19.80;;;15.20;;
23088;SDS011;11713;48.506;8.966;2022-11-15T15:13:03;19.67;;;14.47;;
23088;SDS011;11713;48.506;8.966;2022-11-15T15:15:33;18.70;;;12.60;;
23088;SDS011;11713;48.506;8.966;2022-11-15T15:18:01;15.67;;;11.67;;
23088;SDS011;11713;48.506;8.966;2022-11-15T15:20:29;12.47;;;10.20;;
23088;SDS011;11713;48.506;8.966;2022-11-15T15:22:55;13.70;;;10.37;;
23088;SDS011;11713;48.506;8.966;2022-11-15T15:25:27;12.80;;;9.37;;
23088;SDS011;11713;48.506;8.966;2022-11-15T15:27:55;10.43;;;8.60;;
23088;SDS011;11713;48.506;8.966;2022-11-15T15:30:25;11.60;;;9.03;;
23088;SDS011;11713;48.506;8.966;2022-11-15T15:32:52;15.70;;;10.13;;
23088;SDS011;11713;48.506;8.966;2022-11-15T15:35:19;13.20;;;8.83;;
23088;SDS011;11713;48.506;8.966;2022-11-15T15:37:46;11.03;;;8.10;;
23088;SDS011;11713;48.506;8.966;2022-11-15T15:40:24;11.93;;;8.17;;
23088;SDS011;11713;48.506;8.966;2022-11-15T15:42:55;11.77;;;8.67;;
23088;SDS011;11713;48.506;8.966;2022-11-15T15:45:21;11.20;;;8.23;;
23088;SDS011;11713;48.506;8.966;2022-11-15T15:47:47;12.03;;;8.20;;
23088;SDS011;11713;48.506;8.966;2022-11-15T15:50:34;13.43;;;8.13;;
23088;SDS011;11713;48.506;8.966;2022-11-15T15:53:01;11.30;;;8.13;;
23088;SDS011;11713;48.506;8.966;2022-11-15T15:55:31;10.97;;;7.30;;
23088;SDS011;11713;48.506;8.966;2022-11-15T15:57:57;9.00;;;7.17;;
23088;SDS011;11713;48.506;8.966;2022-11-15T16:00:24;9.73;;;7.80;;
23088;SDS011;11713;48.506;8.966;2022-11-15T16:02:50;10.87;;;7.77;;
23088;SDS011;11713;48.506;8.966;2022-11-15T16:05:17;9.53;;;7.43;;
23088;SDS011;11713;48.506;8.966;2022-11-15T16:07:44;10.37;;;7.83;;
23088;SDS011;11713;48.506;8.966;2022-11-15T16:10:19;10.97;;;7.97;;
23088;SDS011;11713;48.506;8.966;2022-11-15T16:12:47;10.20;;;7.43;;
23088;SDS011;11713;48.506;8.966;2022-11-15T16:15:14;9.33;;;7.00;;
23088;SDS011;11713;48.506;8.966;2022-11-15T16:17:42;12.03;;;7.37;;
23088;SDS011;11713;48.506;8.966;2022-11-15T16:20:23;11.30;;;7.53;;
23088;SDS011;11713;48.506;8.966;2022-11-15T16:22:52;11.67;;;8.57;;
23088;SDS011;11713;48.506;8.966;2022-11-15T16:25:17;11.70;;;8.33;;
23088;SDS011;11713;48.506;8.966;2022-11-15T16:27:43;13.23;;;10.13;;
23088;SDS011;11713;48.506;8.966;2022-11-15T16:30:12;13.67;;;10.73;;
23088;SDS011;11713;48.506;8.966;2022-11-15T16:32:43;16.67;;;11.07;;
23088;SDS011;11713;48.506;8.966;2022-11-15T16:35:13;14.20;;;10.70;;
23088;SDS011;11713;48.506;8.966;2022-11-15T16:37:40;14.03;;;10.70;;
23088;SDS011;11713;48.506;8.966;2022-11-15T16:40:29;14.90;;;10.73;;
23088;SDS011;11713;48.506;8.966;2022-11-15T16:43:08;12.07;;;9.70;;
23088;SDS011;11713;48.506;8.966;2022-11-15T16:45:37;15.60;;;9.33;;
23088;SDS011;11713;48.506;8.966;2022-11-15T16:48:04;13.73;;;9.10;;
23088;SDS011;11713;48.506;8.966;2022-11-15T16:50:32;11.53;;;8.63;;
23088;SDS011;11713;48.506;8.966;2022-11-15T16:53:06;12.43;;;8.67;;
23088;SDS011;11713;48.506;8.966;2022-11-15T16:55:32;11.33;;;9.07;;
23088;SDS011;11713;48.506;8.966;2022-11-15T16:57:58;10.80;;;7.93;;
23088;SDS011;11713;48.506;8.966;2022-11-15T17:00:25;13.07;;;7.50;;
23088;SDS011;11713;48.506;8.966;2022-11-15T17:02:51;11.23;;;7.70;;
23088;SDS011;11713;48.506;8.966;2022-11-15T17:05:19;9.87;;;7.57;;
23088;SDS011;11713;48.506;8.966;2022-11-15T17:07:46;14.83;;;11.93;;
23088;SDS011;11713;48.506;8.966;2022-11-15T17:10:14;14.10;;;9.67;;
23088;SDS011;11713;48.506;8.966;2022-11-15T17:12:41;12.20;;;9.67;;
23088;SDS011;11713;48.506;8.966;2022-11-15T17:15:07;15.87;;;12.80;;
23088;SDS011;11713;48.506;8.966;2022-11-15T17:17:35;14.87;;;12.77;;
23088;SDS011;11713;48.506;8.966;2022-11-15T17:20:01;15.63;;;11.90;;
23088;SDS011;11713;48.506;8.966;2022-11-15T17:22:29;13.90;;;11.73;;
23088;SDS011;11713;48.506;8.966;2022-11-15T17:24:55;18.07;;;12.37;;
23088;SDS011;11713;48.506;8.966;2022-11-15T17:27:21;14.93;;;10.47;;
23088;SDS011;11713;48.506;8.966;2022-11-15T17:29:47;14.77;;;11.67;;
23088;SDS011;11713;48.506;8.966;2022-11-15T17:32:13;13.33;;;10.80;;
23088;SDS011;11713;48.506;8.966;2022-11-15T17:34:39;13.57;;;10.43;;
23088;SDS011;11713;48.506;8.966;2022-11-15T17:37:05;12.07;;;10.27;;
23088;SDS011;11713;48.506;8.966;2022-11-15T17:39:31;13.50;;;10.03;;
23088;SDS011;11713;48.506;8.966;2022-11-15T17:41:57;11.87;;;9.53;;
23088;SDS011;11713;48.506;8.966;2022-11-15T17:44:23;11.77;;;9.63;;
23088;SDS011;11713;48.506;8.966;2022-11-15T17:46:48;13.50;;;10.60;;
23088;SDS011;11713;48.506;8.966;2022-11-15T17:49:14;11.27;;;10.03;;
23088;SDS011;11713;48.506;8.966;2022-11-15T17:51:40;12.03;;;10.40;;
23088;SDS011;11713;48.506;8.966;2022-11-15T17:54:07;15.23;;;10.97;;
23088;SDS011;11713;48.506;8.966;2022-11-15T17:56:37;16.17;;;13.10;;
23088;SDS011;11713;48.506;8.966;2022-11-15T17:59:04;17.90;;;14.03;;
23088;SDS011;11713;48.506;8.966;2022-11-15T18:01:31;21.43;;;14.93;;
23088;SDS011;11713;48.506;8.966;2022-11-15T18:03:59;20.00;;;15.03;;
23088;SDS011;11713;48.506;8.966;2022-11-15T18:06:27;15.73;;;14.13;;
23088;SDS011;11713;48.506;8.966;2022-11-15T18:08:55;16.57;;;14.40;;
23088;SDS011;11713;48.506;8.966;2022-11-15T18:14:21;16.23;;;13.10;;
23088;SDS011;11713;48.506;8.966;2022-11-15T18:16:46;18.03;;;12.80;;
23088;SDS011;11713;48.506;8.966;2022-11-15T18:19:12;15.70;;;11.60;;
23088;SDS011;11713;48.506;8.966;2022-11-15T18:21:43;16.17;;;11.63;;
23088;SDS011;11713;48.506;8.966;2022-11-15T18:24:30;15.27;;;11.13;;
23088;SDS011;11713;48.506;8.966;2022-11-15T18:26:59;13.27;;;10.60;;
23088;SDS011;11713;48.506;8.966;2022-11-15T18:29:26;15.67;;;11.53;;